Time;durP1;ratioP1;P1;durP2;ratioP2;P2;SDS_P1;SDS_P2;PMS_P1;PMS_P2;Temp;Humidity;BMP_temperature;BMP_pressure;BME280_temperature;BME280_humidity;BME280_pressure;Samples;Min_cycle;Max_cycle;Signal;HPM_P1;HPM_P2
2024/01/19 00:00:39;;;;;;;8.82;5.15;;;;;;;;;;6280489;27;20041;-74
2024/01/19 00:03:41;;;;;;;13.65;5.85;;;;;;;;;;6248069;27;20042;-74
2024/01/19 00:06:43;;;;;;;7.80;4.65;;;;;;;;;;6229705;27;20045;-74
2024/01/19 00:09:45;;;;;;;8.98;3.95;;;;;;;;;;6255173;27;20050;-74
2024/01/19 00:12:48;;;;;;;7.57;2.88;;;;;;;;;;6250692;27;20057;-75
2024/01/19 00:15:52;;;;;;;12.23;4.35;;;;;;;;;;6231281;27;20186;-75
2024/01/19 00:18:54;;;;;;;23.60;11.15;;;;;;;;;;6245487;27;20060;-75
2024/01/19 00:21:56;;;;;;;7.32;4.45;;;;;;;;;;6218951;28;20543;-75
2024/01/19 00:24:58;;;;;;;5.47;3.65;;;;;;;;;;6224934;28;20052;-75
2024/01/19 00:28:00;;;;;;;3.50;1.90;;;;;;;;;;6232042;27;20046;-74
2024/01/19 00:31:03;;;;;;;5.03;2.17;;;;;;;;;;6272971;27;20179;-74
2024/01/19 00:34:06;;;;;;;4.40;2.75;;;;;;;;;;6237571;28;20563;-73
2024/01/19 00:37:08;;;;;;;2.88;1.90;;;;;;;;;;6237740;28;20053;-74
2024/01/19 00:40:11;;;;;;;3.60;2.25;;;;;;;;;;6270746;27;20061;-74
2024/01/19 00:43:14;;;;;;;3.85;2.63;;;;;;;;;;6220202;28;20149;-74
2024/01/19 00:46:16;;;;;;;4.18;1.92;;;;;;;;;;6243394;27;20837;-74
2024/01/19 00:49:18;;;;;;;2.97;1.95;;;;;;;;;;6229894;28;20589;-74
2024/01/19 00:52:20;;;;;;;3.40;2.20;;;;;;;;;;6225715;27;20522;-74
2024/01/19 00:55:22;;;;;;;3.03;2.63;;;;;;;;;;6226089;28;20061;-73
2024/01/19 00:58:25;;;;;;;4.80;2.20;;;;;;;;;;6231039;28;20152;-74
2024/01/19 01:01:27;;;;;;;3.15;1.85;;;;;;;;;;6245739;27;20037;-74
2024/01/19 01:04:29;;;;;;;5.63;1.50;;;;;;;;;;6220166;27;20038;-73
2024/01/19 01:07:32;;;;;;;2.55;1.38;;;;;;;;;;6191515;27;20177;-74
2024/01/19 01:10:34;;;;;;;3.25;2.72;;;;;;;;;;6271939;27;20788;-74
2024/01/19 01:13:36;;;;;;;4.00;2.10;;;;;;;;;;6246840;27;20049;-73
2024/01/19 01:16:38;;;;;;;3.65;3.22;;;;;;;;;;6207252;28;20772;-74
2024/01/19 01:19:40;;;;;;;3.05;1.60;;;;;;;;;;6252804;27;20038;-74
2024/01/19 01:22:42;;;;;;;4.10;1.48;;;;;;;;;;6250196;27;20050;-73
2024/01/19 01:25:45;;;;;;;4.95;1.20;;;;;;;;;;6227080;28;20053;-74
2024/01/19 01:28:47;;;;;;;3.42;2.83;;;;;;;;;;6250613;27;20256;-74
2024/01/19 01:31:51;;;;;;;3.05;1.83;;;;;;;;;;6233903;27;20053;-74
2024/01/19 01:34:53;;;;;;;2.72;1.70;;;;;;;;;;6255376;27;20086;-74
2024/01/19 01:37:55;;;;;;;3.55;2.13;;;;;;;;;;6264466;27;20045;-74
2024/01/19 01:40:57;;;;;;;3.55;1.95;;;;;;;;;;6257906;28;20061;-74
2024/01/19 01:44:00;;;;;;;3.70;1.45;;;;;;;;;;6234473;28;20053;-74
2024/01/19 01:47:02;;;;;;;3.50;1.85;;;;;;;;;;6231904;27;20116;-74
2024/01/19 01:50:05;;;;;;;3.85;1.42;;;;;;;;;;6246789;27;20046;-74
2024/01/19 01:53:07;;;;;;;4.63;2.05;;;;;;;;;;6318560;27;20043;-74
2024/01/19 01:56:10;;;;;;;3.55;1.80;;;;;;;;;;6254644;27;20134;-74
2024/01/19 01:59:12;;;;;;;2.58;1.65;;;;;;;;;;6221636;28;20812;-74
2024/01/19 02:02:14;;;;;;;6.68;2.90;;;;;;;;;;6220303;28;20440;-74
2024/01/19 02:05:19;;;;;;;6.10;3.90;;;;;;;;;;6236666;27;20433;-74
2024/01/19 02:08:21;;;;;;;5.80;3.30;;;;;;;;;;6297369;27;20158;-74
2024/01/19 02:11:23;;;;;;;7.28;4.97;;;;;;;;;;6273248;27;20041;-74
2024/01/19 02:14:25;;;;;;;13.30;6.78;;;;;;;;;;6299566;27;20599;-74
2024/01/19 02:17:28;;;;;;;22.67;11.93;;;;;;;;;;6228404;28;20056;-74
2024/01/19 02:20:30;;;;;;;13.23;7.93;;;;;;;;;;6223330;27;20039;-75
2024/01/19 02:23:35;;;;;;;7.25;3.95;;;;;;;;;;6243279;28;20221;-74
2024/01/19 02:26:38;;;;;;;5.63;3.22;;;;;;;;;;6246081;27;20054;-74
2024/01/19 02:29:48;;;;;;;6.53;3.28;;;;;;;;;;6209522;28;20578;-74
2024/01/19 02:32:50;;;;;;;5.20;2.97;;;;;;;;;;6235715;28;20107;-74
2024/01/19 02:35:53;;;;;;;5.68;3.92;;;;;;;;;;6213855;28;20064;-74
2024/01/19 02:38:55;;;;;;;22.45;11.23;;;;;;;;;;6211904;28;20048;-74
2024/01/19 02:41:57;;;;;;;62.40;27.98;;;;;;;;;;6231260;28;20049;-74
2024/01/19 02:44:59;;;;;;;71.45;31.17;;;;;;;;;;6273712;27;20049;-74
2024/01/19 02:48:02;;;;;;;98.38;55.65;;;;;;;;;;6231300;28;20056;-75
2024/01/19 02:51:04;;;;;;;58.58;26.02;;;;;;;;;;6209761;28;20042;-74
2024/01/19 02:54:06;;;;;;;32.03;16.42;;;;;;;;;;6228963;28;20600;-75
2024/01/19 02:57:09;;;;;;;26.45;13.77;;;;;;;;;;6221498;28;20072;-74
2024/01/19 03:00:12;;;;;;;17.23;10.23;;;;;;;;;;6216332;28;20045;-73
2024/01/19 03:03:15;;;;;;;20.27;10.40;;;;;;;;;;6242616;28;20057;-74
2024/01/19 03:06:17;;;;;;;10.68;7.05;;;;;;;;;;6227531;28;20132;-75
2024/01/19 03:09:19;;;;;;;26.02;17.77;;;;;;;;;;6219653;28;20084;-74
2024/01/19 03:12:21;;;;;;;36.75;22.92;;;;;;;;;;6277007;28;20097;-74
2024/01/19 03:15:23;;;;;;;16.17;10.75;;;;;;;;;;6242127;28;20049;-74
2024/01/19 03:18:25;;;;;;;12.68;7.47;;;;;;;;;;6236947;28;20043;-75
2024/01/19 03:21:28;;;;;;;12.80;7.13;;;;;;;;;;6262799;28;20524;-75
2024/01/19 03:24:30;;;;;;;9.38;5.88;;;;;;;;;;6266935;28;20132;-74
2024/01/19 03:27:32;;;;;;;8.43;5.53;;;;;;;;;;6248664;28;20839;-74
2024/01/19 03:30:34;;;;;;;8.98;5.95;;;;;;;;;;6224886;28;20114;-74
2024/01/19 03:33:36;;;;;;;7.25;4.97;;;;;;;;;;6257254;28;20045;-74
2024/01/19 03:36:39;;;;;;;6.97;4.70;;;;;;;;;;6218485;28;20097;-75
2024/01/19 03:39:41;;;;;;;9.60;4.65;;;;;;;;;;6209525;28;20535;-74
2024/01/19 03:42:43;;;;;;;10.30;4.28;;;;;;;;;;6233867;28;20047;-75
2024/01/19 03:45:45;;;;;;;7.15;5.80;;;;;;;;;;6260031;27;20620;-75
2024/01/19 03:48:51;;;;;;;8.88;4.82;;;;;;;;;;6235654;28;20049;-74
2024/01/19 03:52:00;;;;;;;7.45;4.85;;;;;;;;;;6232748;27;20053;-74
2024/01/19 03:55:06;;;;;;;6.97;4.45;;;;;;;;;;6228434;28;20557;-74
2024/01/19 03:58:08;;;;;;;6.20;4.20;;;;;;;;;;6269588;27;20132;-74
2024/01/19 04:01:10;;;;;;;7.05;3.97;;;;;;;;;;6226074;28;20041;-74
2024/01/19 04:04:12;;;;;;;10.15;4.35;;;;;;;;;;6226286;28;20120;-75
2024/01/19 04:07:15;;;;;;;10.07;5.55;;;;;;;;;;6266816;27;20588;-74
2024/01/19 04:10:17;;;;;;;7.00;4.60;;;;;;;;;;6227547;28;20582;-75
2024/01/19 04:13:19;;;;;;;6.90;4.47;;;;;;;;;;6258183;27;20054;-74
2024/01/19 04:16:21;;;;;;;6.85;4.22;;;;;;;;;;6238601;27;20052;-75
2024/01/19 04:19:23;;;;;;;8.20;5.65;;;;;;;;;;6252587;27;20085;-75
2024/01/19 04:22:25;;;;;;;6.88;5.18;;;;;;;;;;6222731;27;20042;-75
2024/01/19 04:25:28;;;;;;;7.30;5.90;;;;;;;;;;6205355;28;20163;-75
2024/01/19 04:28:30;;;;;;;9.80;5.57;;;;;;;;;;6250986;27;20039;-74
2024/01/19 04:31:32;;;;;;;9.63;5.55;;;;;;;;;;6246795;27;20046;-75
2024/01/19 04:34:34;;;;;;;10.52;6.40;;;;;;;;;;6268583;27;20056;-75
2024/01/19 04:37:37;;;;;;;13.95;5.63;;;;;;;;;;6206447;28;20534;-75
2024/01/19 04:40:39;;;;;;;6.47;4.63;;;;;;;;;;6266539;27;20057;-74
2024/01/19 04:43:41;;;;;;;7.03;4.40;;;;;;;;;;6231156;27;20095;-74
2024/01/19 04:46:43;;;;;;;7.30;4.40;;;;;;;;;;6240460;28;20091;-74
2024/01/19 04:49:45;;;;;;;7.45;5.05;;;;;;;;;;6214748;28;20061;-74
2024/01/19 04:52:47;;;;;;;6.38;3.85;;;;;;;;;;6214021;28;20064;-75
2024/01/19 04:55:49;;;;;;;9.05;5.40;;;;;;;;;;6222431;28;20053;-75
2024/01/19 04:58:52;;;;;;;10.70;7.75;;;;;;;;;;6213912;27;20488;-75
2024/01/19 05:01:54;;;;;;;9.95;6.10;;;;;;;;;;6227405;27;20543;-75
2024/01/19 05:04:56;;;;;;;10.88;6.55;;;;;;;;;;6234285;27;20570;-74
2024/01/19 05:08:00;;;;;;;9.60;6.88;;;;;;;;;;6256883;27;20179;-75
2024/01/19 05:11:02;;;;;;;12.60;6.70;;;;;;;;;;6250968;27;20045;-75
2024/01/19 05:14:06;;;;;;;13.35;9.88;;;;;;;;;;6227398;28;20088;-74
2024/01/19 05:17:09;;;;;;;12.43;8.20;;;;;;;;;;6213588;28;20054;-74
2024/01/19 05:20:11;;;;;;;11.75;6.47;;;;;;;;;;6209195;28;20033;-75
2024/01/19 05:23:13;;;;;;;11.10;6.45;;;;;;;;;;6218482;28;20058;-73
2024/01/19 05:26:15;;;;;;;9.70;5.90;;;;;;;;;;6213922;28;20046;-76
2024/01/19 05:29:18;;;;;;;13.55;7.82;;;;;;;;;;6232728;28;20053;-74
2024/01/19 05:32:20;;;;;;;13.60;7.72;;;;;;;;;;6293345;27;20104;-75
2024/01/19 05:35:22;;;;;;;13.82;7.50;;;;;;;;;;6233753;28;20042;-75
2024/01/19 05:38:24;;;;;;;18.60;13.88;;;;;;;;;;6214375;28;20077;-75
2024/01/19 05:41:27;;;;;;;13.88;9.55;;;;;;;;;;6219244;27;20520;-74
2024/01/19 05:44:29;;;;;;;13.43;8.25;;;;;;;;;;6226689;28;20042;-74
2024/01/19 05:47:31;;;;;;;12.52;6.55;;;;;;;;;;6227030;28;20049;-74
2024/01/19 05:50:33;;;;;;;8.48;5.63;;;;;;;;;;6222449;28;20038;-74
2024/01/19 05:53:36;;;;;;;7.50;5.05;;;;;;;;;;6243930;27;20037;-74
2024/01/19 05:56:39;;;;;;;9.30;5.30;;;;;;;;;;6230983;28;20526;-74
2024/01/19 05:59:41;;;;;;;7.93;5.05;;;;;;;;;;6225722;28;20049;-74
2024/01/19 06:02:44;;;;;;;9.13;6.53;;;;;;;;;;6217238;28;20068;-74
2024/01/19 06:05:46;;;;;;;12.00;6.43;;;;;;;;;;6212474;28;20548;-74
2024/01/19 06:08:48;;;;;;;40.58;18.88;;;;;;;;;;6238456;28;20049;-74
2024/01/19 06:11:51;;;;;;;26.77;14.27;;;;;;;;;;6306708;27;20141;-74
2024/01/19 06:14:56;;;;;;;15.35;7.45;;;;;;;;;;6270195;28;20053;-75
2024/01/19 06:17:58;;;;;;;10.65;6.72;;;;;;;;;;6219275;28;20160;-74
2024/01/19 06:21:00;;;;;;;20.20;14.95;;;;;;;;;;6227846;28;20052;-74
2024/01/19 06:24:03;;;;;;;19.23;15.55;;;;;;;;;;6201877;28;20061;-74
2024/01/19 06:27:05;;;;;;;10.30;5.93;;;;;;;;;;6216263;28;20619;-74
2024/01/19 06:30:08;;;;;;;9.68;6.15;;;;;;;;;;6223309;28;20056;-74
2024/01/19 06:33:11;;;;;;;10.10;5.80;;;;;;;;;;6258022;27;20192;-74
2024/01/19 06:36:13;;;;;;;9.02;5.82;;;;;;;;;;6255048;27;20056;-74
2024/01/19 06:39:15;;;;;;;8.18;5.10;;;;;;;;;;6216267;28;20053;-74
2024/01/19 06:42:17;;;;;;;8.88;6.22;;;;;;;;;;6226474;28;20046;-74
2024/01/19 06:45:20;;;;;;;9.10;5.63;;;;;;;;;;6231963;27;20444;-74
2024/01/19 06:48:22;;;;;;;10.75;5.32;;;;;;;;;;6227378;28;20554;-74
2024/01/19 06:51:28;;;;;;;16.70;9.18;;;;;;;;;;6210246;28;20048;-74
2024/01/19 06:54:31;;;;;;;9.70;6.35;;;;;;;;;;6264489;27;20055;-74
2024/01/19 06:57:33;;;;;;;8.27;5.40;;;;;;;;;;6237113;28;20041;-74
2024/01/19 07:00:35;;;;;;;9.95;4.75;;;;;;;;;;6209652;28;20536;-74
2024/01/19 07:03:37;;;;;;;11.52;6.65;;;;;;;;;;6216552;28;20046;-75
2024/01/19 07:06:39;;;;;;;12.88;8.57;;;;;;;;;;6218245;28;20186;-74
2024/01/19 07:09:41;;;;;;;12.85;8.15;;;;;;;;;;6227817;28;20082;-74
2024/01/19 07:12:44;;;;;;;23.90;16.70;;;;;;;;;;6265706;28;20046;-75
2024/01/19 07:15:46;;;;;;;26.20;20.15;;;;;;;;;;6231433;27;20042;-74
2024/01/19 07:18:48;;;;;;;33.80;17.70;;;;;;;;;;6302481;28;20045;-75
2024/01/19 07:21:51;;;;;;;17.05;10.77;;;;;;;;;;6249104;27;20053;-75
2024/01/19 07:24:53;;;;;;;10.38;7.45;;;;;;;;;;6288065;27;20050;-75
2024/01/19 07:27:55;;;;;;;9.80;4.90;;;;;;;;;;6232274;28;20056;-75
2024/01/19 07:30:58;;;;;;;9.00;5.18;;;;;;;;;;6227730;27;20478;-75
2024/01/19 07:34:00;;;;;;;10.32;7.30;;;;;;;;;;6249554;27;20048;-73
2024/01/19 07:37:03;;;;;;;11.23;6.85;;;;;;;;;;6237649;28;20045;-74
2024/01/19 07:40:06;;;;;;;7.80;3.33;;;;;;;;;;6237288;27;20045;-75
2024/01/19 07:43:08;;;;;;;12.25;10.32;;;;;;;;;;6237886;27;20044;-75
2024/01/19 07:46:14;;;;;;;6.57;4.22;;;;;;;;;;6226448;28;20049;-75
2024/01/19 07:49:21;;;;;;;8.57;5.10;;;;;;;;;;6230097;28;20041;-75
2024/01/19 07:52:23;;;;;;;58.08;27.00;;;;;;;;;;6229028;28;20052;-75
2024/01/19 07:55:25;;;;;;;47.95;23.13;;;;;;;;;;6225832;28;20042;-75
2024/01/19 07:58:27;;;;;;;48.75;21.42;;;;;;;;;;6219269;28;20101;-75
2024/01/19 08:01:29;;;;;;;32.28;14.93;;;;;;;;;;6216816;28;20045;-74
2024/01/19 08:04:32;;;;;;;19.52;8.18;;;;;;;;;;6222876;27;20052;-75
2024/01/19 08:07:34;;;;;;;25.08;10.50;;;;;;;;;;6238127;27;20273;-75
2024/01/19 08:10:37;;;;;;;11.02;4.88;;;;;;;;;;6238403;27;20053;-74
2024/01/19 08:13:39;;;;;;;12.32;5.78;;;;;;;;;;6228982;28;20475;-74
2024/01/19 08:16:43;;;;;;;12.07;6.40;;;;;;;;;;6236539;27;20053;-74
2024/01/19 08:19:45;;;;;;;11.90;6.22;;;;;;;;;;6233474;28;20056;-75
2024/01/19 08:22:48;;;;;;;12.80;9.07;;;;;;;;;;6223423;27;20061;-74
2024/01/19 08:25:50;;;;;;;12.90;7.78;;;;;;;;;;6219538;27;20641;-74
2024/01/19 08:28:52;;;;;;;14.15;8.40;;;;;;;;;;6238972;27;20517;-74
2024/01/19 08:31:54;;;;;;;9.43;6.55;;;;;;;;;;6241954;27;20138;-75
2024/01/19 08:34:57;;;;;;;9.32;5.93;;;;;;;;;;6232196;27;20065;-74
2024/01/19 08:38:00;;;;;;;14.52;7.45;;;;;;;;;;6232051;27;20045;-75
2024/01/19 08:41:02;;;;;;;8.95;6.20;;;;;;;;;;6231709;27;20049;-75
2024/01/19 08:44:04;;;;;;;10.30;7.30;;;;;;;;;;6229088;27;20048;-75
2024/01/19 08:47:07;;;;;;;9.30;6.28;;;;;;;;;;6231276;28;20184;-75
2024/01/19 08:50:09;;;;;;;11.00;5.90;;;;;;;;;;6214999;28;20087;-75
2024/01/19 08:53:11;;;;;;;8.90;5.15;;;;;;;;;;6228953;27;20042;-75
2024/01/19 08:56:20;;;;;;;9.13;6.90;;;;;;;;;;6222826;28;20060;-75
2024/01/19 08:59:24;;;;;;;11.05;7.28;;;;;;;;;;6212921;27;20136;-75
2024/01/19 09:02:27;;;;;;;10.85;6.57;;;;;;;;;;6230810;27;20041;-76
2024/01/19 09:05:29;;;;;;;8.85;6.30;;;;;;;;;;6227736;28;20049;-76
2024/01/19 09:08:32;;;;;;;10.93;7.63;;;;;;;;;;6224675;28;20054;-76
2024/01/19 09:11:35;;;;;;;9.80;5.88;;;;;;;;;;6213958;28;20046;-76
2024/01/19 09:14:37;;;;;;;10.60;7.03;;;;;;;;;;6215593;28;20175;-76
2024/01/19 09:17:39;;;;;;;9.70;6.03;;;;;;;;;;6244087;27;20152;-75
2024/01/19 09:20:42;;;;;;;9.20;7.18;;;;;;;;;;6236617;27;20066;-75
2024/01/19 09:23:45;;;;;;;9.23;4.70;;;;;;;;;;6241774;27;20819;-76
2024/01/19 09:26:47;;;;;;;15.45;8.52;;;;;;;;;;6216844;27;20050;-76
2024/01/19 09:29:49;;;;;;;7.55;4.55;;;;;;;;;;6214343;28;20169;-77
2024/01/19 09:32:51;;;;;;;9.48;6.18;;;;;;;;;;6228670;27;20042;-75
2024/01/19 09:35:54;;;;;;;6.05;3.78;;;;;;;;;;6229150;27;20951;-73
2024/01/19 09:38:58;;;;;;;9.93;5.07;;;;;;;;;;6238990;28;20052;-75
2024/01/19 09:42:03;;;;;;;8.48;4.57;;;;;;;;;;6226818;27;20571;-76
2024/01/19 09:45:07;;;;;;;4.30;2.75;;;;;;;;;;6218916;28;20564;-74
2024/01/19 09:48:23;;;;;;;38.38;15.18;;;;;;;;;;6217249;28;20383;-74
2024/01/19 09:51:37;;;;;;;16.45;6.75;;;;;;;;;;6236371;28;20037;-74
2024/01/19 09:54:40;;;;;;;15.93;7.50;;;;;;;;;;6225139;28;20412;-76
2024/01/19 09:57:47;;;;;;;8.23;5.53;;;;;;;;;;6238561;28;20053;-76
2024/01/19 10:00:50;;;;;;;13.50;6.22;;;;;;;;;;6212936;28;20053;-76
2024/01/19 10:03:57;;;;;;;15.98;7.80;;;;;;;;;;6230150;28;20049;-76
2024/01/19 10:07:01;;;;;;;10.48;6.10;;;;;;;;;;6226804;28;20231;-76
2024/01/19 10:10:04;;;;;;;29.52;12.48;;;;;;;;;;6219035;28;20057;-76
2024/01/19 10:13:07;;;;;;;9.10;5.75;;;;;;;;;;6223830;28;20600;-76
2024/01/19 10:16:09;;;;;;;9.18;5.47;;;;;;;;;;6257516;27;20091;-76
2024/01/19 10:19:13;;;;;;;10.95;7.20;;;;;;;;;;6206768;28;20060;-75
2024/01/19 10:22:28;;;;;;;12.35;4.72;;;;;;;;;;6210342;28;20037;-76
2024/01/19 10:25:33;;;;;;;7.75;4.25;;;;;;;;;;6218533;28;20533;-76
2024/01/19 10:28:35;;;;;;;6.47;3.80;;;;;;;;;;6232579;28;20050;-76
2024/01/19 10:31:39;;;;;;;9.50;3.20;;;;;;;;;;6224807;27;20656;-76
2024/01/19 10:34:41;;;;;;;9.25;3.60;;;;;;;;;;6230316;27;20042;-76
2024/01/19 10:37:44;;;;;;;10.05;3.75;;;;;;;;;;6225056;28;20582;-76
2024/01/19 10:40:46;;;;;;;9.27;3.55;;;;;;;;;;6228183;27;20057;-75
2024/01/19 10:43:48;;;;;;;7.80;3.75;;;;;;;;;;6278389;27;20508;-76
2024/01/19 10:46:50;;;;;;;5.38;3.08;;;;;;;;;;6244616;27;20200;-76
2024/01/19 10:50:05;;;;;;;5.60;3.08;;;;;;;;;;6238151;27;20060;-76
2024/01/19 10:53:12;;;;;;;8.85;2.95;;;;;;;;;;6262009;27;20045;-76
2024/01/19 10:56:21;;;;;;;8.48;2.67;;;;;;;;;;6243455;27;20053;-76
2024/01/19 10:59:25;;;;;;;5.53;3.10;;;;;;;;;;6250334;27;20047;-76
2024/01/19 11:02:28;;;;;;;7.35;2.67;;;;;;;;;;6205961;28;20112;-76
2024/01/19 11:05:31;;;;;;;6.95;3.10;;;;;;;;;;6220413;28;20053;-76
2024/01/19 11:08:34;;;;;;;6.50;1.98;;;;;;;;;;6242538;28;20072;-75
2024/01/19 11:11:47;;;;;;;5.07;2.80;;;;;;;;;;6216046;28;20241;-76
2024/01/19 11:14:51;;;;;;;5.90;2.38;;;;;;;;;;6217386;28;20038;-76
2024/01/19 11:17:55;;;;;;;6.63;2.90;;;;;;;;;;6210560;28;20751;-76
2024/01/19 11:20:58;;;;;;;7.00;3.40;;;;;;;;;;6208142;28;20065;-76
2024/01/19 11:24:01;;;;;;;6.85;2.22;;;;;;;;;;6221869;28;20037;-76
2024/01/19 11:27:13;;;;;;;6.07;2.30;;;;;;;;;;6230302;28;20046;-76
2024/01/19 11:30:50;;;;;;;4.13;1.90;;;;;;;;;;6224141;28;20049;-77
2024/01/19 11:33:52;;;;;;;4.25;1.75;;;;;;;;;;6242491;28;20140;-75
2024/01/19 11:36:54;;;;;;;5.60;1.92;;;;;;;;;;6238148;28;20049;-75
2024/01/19 11:39:57;;;;;;;9.18;3.08;;;;;;;;;;6231650;28;20543;-76
2024/01/19 11:42:59;;;;;;;3.80;1.27;;;;;;;;;;6231319;27;20038;-76
2024/01/19 11:46:01;;;;;;;7.05;1.23;;;;;;;;;;6214856;28;20046;-76
2024/01/19 11:49:04;;;;;;;6.63;2.45;;;;;;;;;;6237353;27;20046;-75
2024/01/19 11:52:09;;;;;;;4.82;2.92;;;;;;;;;;6231122;28;20045;-75
2024/01/19 11:55:25;;;;;;;5.53;2.28;;;;;;;;;;6260562;28;20066;-75
2024/01/19 11:58:32;;;;;;;4.68;1.42;;;;;;;;;;6239584;28;20052;-75
2024/01/19 12:01:40;;;;;;;8.10;3.13;;;;;;;;;;6264332;28;20088;-75
2024/01/19 12:04:43;;;;;;;14.05;3.72;;;;;;;;;;6231045;28;20033;-76
2024/01/19 12:07:45;;;;;;;7.07;3.03;;;;;;;;;;6193105;28;20046;-75
2024/01/19 12:10:47;;;;;;;5.47;2.45;;;;;;;;;;6207456;28;20089;-75
2024/01/19 12:13:49;;;;;;;6.97;4.00;;;;;;;;;;6222935;28;20144;-75
2024/01/19 12:17:03;;;;;;;9.57;3.55;;;;;;;;;;6258681;27;20101;-75
2024/01/19 12:20:10;;;;;;;5.57;1.88;;;;;;;;;;6225357;28;20053;-76
2024/01/19 12:23:14;;;;;;;4.55;2.13;;;;;;;;;;6231209;27;20149;-76
2024/01/19 12:26:20;;;;;;;4.82;2.35;;;;;;;;;;6208835;28;20062;-76
2024/01/19 12:29:32;;;;;;;9.70;2.60;;;;;;;;;;6223984;28;20057;-76
2024/01/19 12:32:34;;;;;;;5.72;2.38;;;;;;;;;;6239366;27;20126;-76
2024/01/19 12:35:36;;;;;;;5.90;2.13;;;;;;;;;;6236491;27;20053;-76
2024/01/19 12:38:40;;;;;;;7.18;3.17;;;;;;;;;;6226576;28;20140;-76
2024/01/19 12:41:43;;;;;;;6.10;2.50;;;;;;;;;;6208417;28;20037;-76
2024/01/19 12:44:45;;;;;;;7.20;5.63;;;;;;;;;;6247828;27;20559;-75
2024/01/19 12:47:49;;;;;;;10.07;3.95;;;;;;;;;;6233741;27;20431;-75
2024/01/19 12:50:52;;;;;;;8.90;3.85;;;;;;;;;;6265689;27;20057;-76
2024/01/19 12:53:55;;;;;;;7.72;3.72;;;;;;;;;;6229432;28;20053;-76
2024/01/19 12:56:58;;;;;;;5.82;3.47;;;;;;;;;;6224040;28;20049;-75
2024/01/19 13:00:16;;;;;;;9.68;3.53;;;;;;;;;;6221121;27;20061;-76
2024/01/19 13:03:20;;;;;;;7.70;3.72;;;;;;;;;;6229466;28;20048;-76
2024/01/19 13:06:23;;;;;;;31.40;12.90;;;;;;;;;;6225769;27;20042;-76
2024/01/19 13:09:25;;;;;;;58.42;26.75;;;;;;;;;;6240784;27;20041;-75
2024/01/19 13:12:27;;;;;;;27.33;12.65;;;;;;;;;;6229423;27;20033;-76
2024/01/19 13:15:31;;;;;;;11.50;6.15;;;;;;;;;;6237257;27;20177;-77
2024/01/19 13:18:35;;;;;;;9.23;5.15;;;;;;;;;;6183842;27;20511;-76
2024/01/19 13:21:38;;;;;;;6.57;1.92;;;;;;;;;;6227250;28;20057;-76
2024/01/19 13:24:40;;;;;;;4.53;1.52;;;;;;;;;;6206962;28;20046;-76
2024/01/19 13:27:42;;;;;;;5.95;2.13;;;;;;;;;;6222784;28;20052;-75
2024/01/19 13:30:47;;;;;;;6.03;2.05;;;;;;;;;;6210132;28;20140;-76
2024/01/19 13:33:49;;;;;;;6.07;3.80;;;;;;;;;;6212610;28;20029;-76
2024/01/19 13:36:52;;;;;;;7.15;2.65;;;;;;;;;;6207231;28;20128;-76
2024/01/19 13:39:57;;;;;;;5.65;2.25;;;;;;;;;;6197552;28;20566;-76
2024/01/19 13:42:59;;;;;;;10.45;4.22;;;;;;;;;;6220084;28;20049;-77
2024/01/19 13:46:02;;;;;;;5.25;2.67;;;;;;;;;;6228747;28;20629;-76
2024/01/19 13:49:04;;;;;;;10.63;3.17;;;;;;;;;;6244998;27;20520;-75
2024/01/19 13:52:07;;;;;;;12.05;6.20;;;;;;;;;;6241633;27;20126;-76
2024/01/19 13:55:09;;;;;;;8.60;3.15;;;;;;;;;;6242634;27;20041;-74
2024/01/19 13:58:12;;;;;;;7.47;2.08;;;;;;;;;;6227796;28;20132;-75
2024/01/19 14:01:14;;;;;;;83.25;47.58;;;;;;;;;;6230115;27;21001;-75
2024/01/19 14:04:17;;;;;;;9.65;4.63;;;;;;;;;;6210057;28;20038;-76
2024/01/19 14:07:20;;;;;;;8.70;2.53;;;;;;;;;;6210885;28;20092;-75
2024/01/19 14:10:22;;;;;;;8.20;2.08;;;;;;;;;;6222290;28;20686;-76
2024/01/19 14:13:24;;;;;;;6.00;2.08;;;;;;;;;;6240669;27;20046;-76
2024/01/19 14:16:26;;;;;;;12.75;8.48;;;;;;;;;;6236840;27;20097;-76
2024/01/19 14:19:29;;;;;;;11.77;6.55;;;;;;;;;;6227484;27;20692;-76
2024/01/19 14:22:31;;;;;;;7.53;4.00;;;;;;;;;;6241663;27;20049;-76
2024/01/19 14:25:34;;;;;;;15.13;10.10;;;;;;;;;;6237102;27;20037;-76
2024/01/19 14:28:37;;;;;;;9.57;5.90;;;;;;;;;;6246021;27;20049;-76
2024/01/19 14:31:40;;;;;;;12.57;5.72;;;;;;;;;;6231961;27;20041;-76
2024/01/19 14:34:43;;;;;;;11.05;4.45;;;;;;;;;;6224613;28;20033;-77
2024/01/19 14:37:54;;;;;;;10.02;2.75;;;;;;;;;;6209132;28;20703;-76
2024/01/19 14:40:56;;;;;;;20.42;12.02;;;;;;;;;;6215665;27;20057;-77
2024/01/19 14:43:58;;;;;;;13.05;7.95;;;;;;;;;;6251879;27;20041;-76
2024/01/19 14:47:01;;;;;;;12.30;8.57;;;;;;;;;;6226168;28;20052;-76
2024/01/19 14:50:04;;;;;;;13.50;9.05;;;;;;;;;;6224424;28;20588;-77
2024/01/19 14:53:07;;;;;;;12.68;6.93;;;;;;;;;;6204952;28;20655;-77
2024/01/19 14:56:09;;;;;;;18.00;10.73;;;;;;;;;;6224459;28;20128;-78
2024/01/19 14:59:11;;;;;;;17.60;7.47;;;;;;;;;;6233788;28;20049;-76
2024/01/19 15:02:14;;;;;;;11.93;7.72;;;;;;;;;;6230146;28;20056;-75
2024/01/19 15:05:17;;;;;;;14.80;10.75;;;;;;;;;;6222815;28;20123;-76
2024/01/19 15:08:20;;;;;;;10.88;5.18;;;;;;;;;;6240728;28;20440;-76
2024/01/19 15:11:22;;;;;;;11.48;5.93;;;;;;;;;;6215487;28;20045;-76
2024/01/19 15:14:24;;;;;;;9.82;5.88;;;;;;;;;;6230820;28;20042;-76
2024/01/19 15:17:27;;;;;;;12.23;5.55;;;;;;;;;;6234927;28;20562;-75
2024/01/19 15:20:30;;;;;;;13.70;7.07;;;;;;;;;;6207675;28;20088;-76
2024/01/19 15:23:32;;;;;;;18.42;10.02;;;;;;;;;;6219440;28;20165;-75
2024/01/19 15:26:34;;;;;;;15.65;9.27;;;;;;;;;;6237235;28;20756;-75
2024/01/19 15:29:36;;;;;;;20.25;12.85;;;;;;;;;;6226593;28;20049;-75
2024/01/19 15:32:38;;;;;;;31.77;15.20;;;;;;;;;;6223650;28;20033;-75
2024/01/19 15:35:40;;;;;;;23.90;13.05;;;;;;;;;;6226638;28;20071;-75
2024/01/19 15:38:43;;;;;;;13.00;6.60;;;;;;;;;;6227043;28;20037;-74
2024/01/19 15:41:45;;;;;;;10.95;7.00;;;;;;;;;;6225121;28;20451;-73
2024/01/19 15:44:47;;;;;;;15.80;9.35;;;;;;;;;;6229751;28;20048;-73
2024/01/19 15:47:50;;;;;;;14.52;8.77;;;;;;;;;;6233599;27;20053;-73
2024/01/19 15:50:57;;;;;;;7.40;3.75;;;;;;;;;;6229392;28;20049;-73
2024/01/19 15:54:00;;;;;;;11.35;5.10;;;;;;;;;;6310744;27;20097;-75
2024/01/19 15:57:02;;;;;;;7.80;3.63;;;;;;;;;;6226668;28;20479;-75
2024/01/19 16:00:05;;;;;;;12.63;10.20;;;;;;;;;;6222558;28;20046;-74
2024/01/19 16:03:11;;;;;;;14.40;10.30;;;;;;;;;;6230384;28;20792;-73
2024/01/19 16:06:15;;;;;;;27.42;11.55;;;;;;;;;;6229832;27;20102;-74
2024/01/19 16:09:17;;;;;;;14.73;6.85;;;;;;;;;;6228393;28;20053;-74
2024/01/19 16:12:21;;;;;;;19.92;9.48;;;;;;;;;;6195203;28;20050;-75
2024/01/19 16:15:23;;;;;;;21.85;13.13;;;;;;;;;;6236235;27;20053;-76
2024/01/19 16:18:25;;;;;;;23.15;15.15;;;;;;;;;;6224107;28;20503;-76
2024/01/19 16:21:28;;;;;;;27.92;10.77;;;;;;;;;;6233015;27;20042;-76
2024/01/19 16:24:30;;;;;;;20.48;10.75;;;;;;;;;;6251327;27;20042;-76
2024/01/19 16:27:34;;;;;;;49.10;27.38;;;;;;;;;;6218975;28;20117;-76
2024/01/19 16:30:36;;;;;;;44.08;21.08;;;;;;;;;;6237032;27;20524;-76
2024/01/19 16:33:39;;;;;;;45.33;26.30;;;;;;;;;;6262170;27;20053;-76
2024/01/19 16:36:41;;;;;;;42.83;23.00;;;;;;;;;;6217727;27;20107;-76
2024/01/19 16:39:43;;;;;;;23.58;15.98;;;;;;;;;;6208849;27;20145;-76
2024/01/19 16:42:49;;;;;;;18.88;11.57;;;;;;;;;;6220105;28;20045;-75
2024/01/19 16:45:53;;;;;;;19.00;13.23;;;;;;;;;;6233033;27;20049;-76
2024/01/19 16:48:56;;;;;;;12.35;6.47;;;;;;;;;;6237048;27;20055;-76
2024/01/19 16:51:58;;;;;;;9.85;4.90;;;;;;;;;;6228341;27;20061;-76
2024/01/19 16:55:00;;;;;;;8.13;4.38;;;;;;;;;;6219779;27;20065;-75
2024/01/19 16:58:02;;;;;;;13.63;7.93;;;;;;;;;;6220818;27;20045;-76
2024/01/19 17:01:04;;;;;;;12.32;6.43;;;;;;;;;;6230208;28;20093;-76
2024/01/19 17:04:07;;;;;;;13.48;6.20;;;;;;;;;;6225322;28;20052;-76
2024/01/19 17:07:09;;;;;;;10.52;5.20;;;;;;;;;;6238284;27;20040;-77
2024/01/19 17:10:12;;;;;;;8.95;4.35;;;;;;;;;;6237565;27;20755;-76
2024/01/19 17:13:14;;;;;;;9.32;4.35;;;;;;;;;;6210971;27;20099;-76
2024/01/19 17:16:16;;;;;;;9.93;3.75;;;;;;;;;;6240497;27;20072;-76
2024/01/19 17:19:25;;;;;;;6.13;4.10;;;;;;;;;;6265658;27;20071;-76
2024/01/19 17:22:28;;;;;;;11.95;4.03;;;;;;;;;;6235169;28;20049;-76
2024/01/19 17:25:30;;;;;;;8.52;4.30;;;;;;;;;;6239345;27;20099;-76
2024/01/19 17:28:34;;;;;;;10.55;4.32;;;;;;;;;;6219931;27;20844;-75
2024/01/19 17:31:36;;;;;;;9.73;4.03;;;;;;;;;;6212943;28;20041;-76
2024/01/19 17:34:38;;;;;;;9.57;3.85;;;;;;;;;;6245235;27;20039;-76
2024/01/19 17:37:40;;;;;;;9.38;3.92;;;;;;;;;;6250429;27;20037;-76
2024/01/19 17:40:45;;;;;;;5.70;3.60;;;;;;;;;;6236082;27;20168;-76
2024/01/19 17:43:48;;;;;;;58.47;31.02;;;;;;;;;;6244417;27;20515;-76
2024/01/19 17:46:50;;;;;;;70.25;34.78;;;;;;;;;;6203511;28;20088;-76
2024/01/19 17:49:52;;;;;;;42.15;22.83;;;;;;;;;;6230678;27;20581;-76
2024/01/19 17:52:55;;;;;;;32.88;20.88;;;;;;;;;;6225763;27;20043;-76
2024/01/19 17:55:58;;;;;;;24.65;15.85;;;;;;;;;;6224670;28;20451;-76
2024/01/19 17:59:02;;;;;;;17.35;5.57;;;;;;;;;;6204116;27;20050;-74
2024/01/19 18:02:06;;;;;;;8.55;5.00;;;;;;;;;;6243248;27;20740;-75
2024/01/19 18:05:09;;;;;;;12.23;5.57;;;;;;;;;;6217796;27;20045;-76
2024/01/19 18:08:14;;;;;;;8.25;3.47;;;;;;;;;;6210074;28;20141;-77